Aktualne dane pomiarowe

Uwaga, wersja testowa! Automatyczne pobieranie danych za pomocą narzędzi lub skryptów to umożliwiających jest zabronione.

Dane meteo z obszaru Polski uzyskane na podstawie depesz SYNOP pobieranych co godzinę z NWS. Najedź myszką na symbol przedstawiony w tabeli, aby uzyskać informacje co do jego znaczenia. Prosimy pamiętać, że to testowa wersja strony, która jeszcze nie jest ukończona. Stworzono również jest krótki FAQ dotyczący korzystania z tej podstrony Anomalie temperatury w chwili obecnej odniesione są do okresu referencyjnego 1951-2016. Okres ten będzie później zmieniony na 1981-2010. Kliknij ikonę aby pobrać plik CSV. Kliknij ikonę aby wygenerować mapę synoptyczną dla danego terminu.

Wybierz Datę:    

        

Nowy Sącz (12660)

Dane terminowe dla wybranej stacji. Kliknij datę, aby otrzymać dane z tego terminu dla wszystkich stacji.

TemperaturaZachmurzenieWiatrCiśnienieOpadyPogoda
 Data t td wb tx tn tg rh  Nt Nl Cl Cm Ch ws wd g1 g2 wx mslp ppp ch 24h 12h t ww ww w1 w2  
2019-07-12 23:00:00 15.6 9.5 11.8--- 6730.0--1wx--11011.4 976.7 0.1---------
2019-07-12 22:00:00 16.1 9.7 12.2--- 6615.0--1wx---1011.2 976.6 0.6---------
2019-07-12 21:00:00 17.5 9.4 12.6--- 5923.0--1wx--11010.8 976.4 0.9---------
2019-07-12 20:00:00 18.3 9.6 13.1--- 5719.0--1wx--11011.0 976.6 1.3---------
2019-07-12 19:00:00 19.3 8.0 12.8--- 4827.0--1wx--11010.2 976.0 0.6---------
2019-07-12 18:00:00 21.3 6.0 12.9 24.5 12.3- 3750.0--2wx--21009.5 975.5 -0.2- 0.012------
2019-07-12 17:00:00 23.0 7.5 14.3--- 3750.0--1wx--11009.1 975.3 -0.8---------
2019-07-12 16:00:00 23.1 5.9 13.7--- 3345.0--1wx--11009.1 975.4 -1.1---------
2019-07-12 15:00:00 23.9 5.7 13.9--- 3135.0--1wx--11009.4 975.7 -1.1---------
2019-07-12 14:00:00 23.6 5.0 13.5--- 3026.0--1wx--11009.8 976.1 -1.1---------
2019-07-12 13:00:00 23.3 5.7 13.7--- 3230.0--1wx--11010.3 976.5 -1.0---------
2019-07-12 12:00:00 22.9 5.3 13.3--- 3230.0--1wx--11010.6 976.8 -0.9- 0.06------
2019-07-12 11:00:00 21.9 4.4 12.6--- 3235.0--1wx--11011.1 977.2 -0.8---------
2019-07-12 10:00:00 21.3 6.4 13.1--- 3830.0--2wx--21011.5 977.5 -0.8---------
2019-07-12 09:00:00 21.0 6.9 13.1--- 4030.0--1wx---1011.8 977.7 -0.9---------
2019-07-12 08:00:00 18.9 9.1 13.1--- 5330.0--1wx--11012.3 978.0 -0.9---------
2019-07-12 07:00:00 15.7 9.1 11.7--- 6535.0--1wx--11013.0 978.3 -0.6---------
2019-07-12 06:00:00 12.3 8.4 9.8 17.0 6.2 4 7727.0--1wx--11013.8 978.6 -0.2 5.8 0.012----- 6.6
2019-07-12 05:00:00 9.1 7.2 7.8--- 8826.0--1wx---1014.5 978.9 0.2---------
2019-07-12 04:00:00 6.7 5.5 5.9--- 928.0--1wx--11014.8 978.9 0.1---wx-----
2019-07-12 03:00:00 6.3 5.1 5.5--- 925.0--0---01014.7 978.8 -0.1---wx-----
2019-07-12 02:00:00 6.8 5.3 5.8--- 9015.0--1wx--11014.6 978.7 -0.5---------
2019-07-12 01:00:00 7.1 5.6 6.1--- 906.0--1wx--11014.6 978.8 -0.4---wx-----
2019-07-12 00:00:00 8.0 6.5 7.0--- 9011.0--0---01014.6 978.9 -0.2- 0.06------
2019-07-11 23:00:00 8.7 6.7 7.4--- 8712.0--0---01014.8 979.2 0.5---------
2019-07-11 22:00:00 9.5 7.4 8.1--- 8711.0--1wx--11014.7 979.2 1.0---wx-----
2019-07-11 21:00:00 10.7 7.8 8.8--- 8216.0--1wx--11014.5 979.1 1.3---------
2019-07-11 20:00:00 12.4 7.3 9.3--- 7122.0--2wx--21013.9 978.7 1.2---------
2019-07-11 19:00:00 14.2 6.5 9.8--- 6045.0--1wx--11013.1 978.2 0.7---------
2019-07-11 18:00:00 17.0 6.2 11.0 18.9 12.4- 4945.0--1wx-911012.4 977.8 0.3- 6.012------
2019-07-11 17:00:00 18.2 6.1 11.5--- 4545.0--2wx7721011.9 977.5 0.0---------
2019-07-11 16:00:00 17.6 8.4 12.2--- 5540.0--2wx-721012.0 977.5 0.1---------
2019-07-11 15:00:00 18.3 7.1 12.0--- 4840.0--3wx-931011.9 977.5 0.1---------
2019-07-11 14:00:00 16.9 8.1 11.8--- 5640.0--3wx--31012.1 977.5 -0.2---------
2019-07-11 13:00:00 16.1 10.2 12.4--- 6830.0--3wx-931012.1 977.4 -0.1---wx-----
2019-07-11 12:00:00 16.2 9.4 12.1--- 6430.0--2wx-1421012.0 977.4 -0.3- 2.06wx-----
2019-07-11 11:00:00 14.8 8.1 10.8--- 6435.0--7wx141471012.5 977.7 -0.3---wx-----
2019-07-11 10:00:00 15.6 10.8 12.5--- 7329.0--2wx-1021012.2 977.5 -0.7---wx-----
2019-07-11 09:00:00 16.5 7.7 11.4--- 5640.0--3wx--31012.3 977.7 -0.4---------
2019-07-11 08:00:00 15.6 9.3 11.7--- 6630.0--4wx--41012.7 978.0 -0.3---------
2019-07-11 07:00:00 14.1 10.9 12.0--- 8123.0--1wx---1013.1 978.2 0.1---wx-----
2019-07-11 06:00:00 13.1 10.6 11.4 16.1 10.0 8 8522.0--1wx--11013.1 978.1 0.1 0.4 0.412wx---- 6.1
2019-07-11 05:00:00 12.2 9.2 10.2--- 8213.0--2wx--21013.5 978.3 0.1---wx-----
2019-07-11 04:00:00 10.9 8.1 9.1--- 8330.0--2wx--21013.4 978.1 -0.6---------
2019-07-11 03:00:00 10.4 7.8 8.7--- 8430.0--1wx--11013.4 978.0 -1.1---------
2019-07-11 02:00:00 10.1 8.2 8.8--- 887.0--0---01013.6 978.2 -0.9---wx-----
2019-07-11 01:00:00 11.0 8.9 9.6--- 8718.0--1wx--11014.0 978.7 -0.8---------
2019-07-11 00:00:00 12.1 9.5 10.4--- 8424.0--0--801014.3 979.1 -0.3- 0.36------
1.1 ms

 

Print Friendly, PDF & Email